Time;durP1;ratioP1;P1;durP2;ratioP2;P2;SDS_P1;SDS_P2;PMS_P1;PMS_P2;Temp;Humidity;BMP_temperature;BMP_pressure;BME280_temperature;BME280_humidity;BME280_pressure;Samples;Min_cycle;Max_cycle;Signal;HPM_P1;HPM_P2
2021/10/05 00:03:16;;;;;;;8.80;1.85;;;;;;;11.11;81.15;101479.66;10141702;28;20042;-70
2021/10/05 00:08:13;;;;;;;5.05;1.90;;;;;;;11.10;80.98;101480.78;10145033;28;20092;-69
2021/10/05 00:13:10;;;;;;;3.90;1.50;;;;;;;11.07;81.64;101470.47;10151672;28;20038;-69
2021/10/05 00:18:06;;;;;;;5.22;1.58;;;;;;;11.04;80.99;101470.22;10143714;28;20420;-71
2021/10/05 00:23:03;;;;;;;4.22;1.80;;;;;;;10.99;81.14;101473.88;10144740;28;20505;-70
2021/10/05 00:28:00;;;;;;;4.45;1.95;;;;;;;10.94;81.78;101465.78;10150393;28;20160;-69
2021/10/05 00:32:56;;;;;;;6.10;1.73;;;;;;;10.91;81.57;101460.91;10140891;28;20131;-70
2021/10/05 00:37:53;;;;;;;6.85;1.90;;;;;;;10.86;81.87;101452.78;10153431;28;20056;-70
2021/10/05 00:42:49;;;;;;;5.72;2.08;;;;;;;10.84;81.91;101455.03;10140365;28;20096;-70
2021/10/05 00:47:47;;;;;;;5.55;1.73;;;;;;;10.82;81.77;101454.50;10140476;28;20073;-71
2021/10/05 00:52:43;;;;;;;5.75;1.70;;;;;;;10.79;82.52;101457.81;10148450;28;20065;-71
2021/10/05 00:57:40;;;;;;;5.45;2.03;;;;;;;10.80;82.60;101467.69;10139254;28;20161;-69
2021/10/05 01:02:38;;;;;;;3.70;1.60;;;;;;;10.79;82.46;101441.41;10132869;28;20503;-71
2021/10/05 01:07:34;;;;;;;3.78;1.90;;;;;;;10.81;82.78;101440.00;10148907;28;20050;-70
2021/10/05 01:12:31;;;;;;;4.72;1.77;;;;;;;10.78;83.06;101423.41;10145624;28;20088;-69
2021/10/05 01:17:28;;;;;;;5.20;1.70;;;;;;;10.77;82.99;101427.22;10142454;28;20104;-69
2021/10/05 01:22:24;;;;;;;4.57;1.50;;;;;;;10.79;83.42;101419.53;10144728;28;20638;-70
2021/10/05 01:27:20;;;;;;;5.00;1.60;;;;;;;10.78;83.48;101415.19;10150033;28;20077;-71
2021/10/05 01:32:17;;;;;;;5.88;1.50;;;;;;;10.78;83.00;101401.50;10143227;28;20145;-71
2021/10/05 01:37:13;;;;;;;3.90;1.70;;;;;;;10.80;83.68;101399.28;10148722;28;20079;-71
2021/10/05 01:42:13;;;;;;;5.22;1.55;;;;;;;10.77;83.36;101383.47;10147212;28;20039;-71
2021/10/05 01:47:10;;;;;;;4.82;1.52;;;;;;;10.77;83.12;101383.47;10147807;28;20504;-71
2021/10/05 01:52:07;;;;;;;5.13;2.05;;;;;;;10.77;83.66;101372.53;10150662;28;20497;-70
2021/10/05 01:57:04;;;;;;;4.93;1.73;;;;;;;10.79;83.54;101381.25;10136255;28;20575;-70
2021/10/05 02:02:00;;;;;;;5.38;1.52;;;;;;;10.78;84.00;101382.38;10135511;28;20066;-69
2021/10/05 02:06:57;;;;;;;5.68;1.60;;;;;;;10.76;83.90;101382.66;10150331;28;20464;-70
2021/10/05 02:11:53;;;;;;;7.55;2.33;;;;;;;10.77;83.71;101378.00;10159526;28;20074;-70
2021/10/05 02:16:50;;;;;;;8.05;2.20;;;;;;;10.73;83.76;101378.59;10147241;28;20074;-70
2021/10/05 02:21:47;;;;;;;5.43;1.75;;;;;;;10.69;84.17;101361.16;10160646;28;20039;-69
2021/10/05 02:26:44;;;;;;;6.20;1.50;;;;;;;10.69;83.70;101346.69;10153269;28;20038;-69
2021/10/05 02:31:41;;;;;;;5.60;1.63;;;;;;;10.67;84.11;101344.25;10146246;28;20113;-70
2021/10/05 02:36:37;;;;;;;4.40;1.80;;;;;;;10.68;83.71;101343.16;10155127;28;20274;-69
2021/10/05 02:41:34;;;;;;;3.95;1.77;;;;;;;10.64;84.25;101344.88;10152705;28;20090;-68
2021/10/05 02:46:31;;;;;;;5.90;1.45;;;;;;;10.62;83.84;101327.94;10152100;28;20526;-70
2021/10/05 02:51:28;;;;;;;6.03;1.67;;;;;;;10.61;84.67;101325.53;10145977;28;20053;-69
2021/10/05 02:56:25;;;;;;;7.13;1.42;;;;;;;10.61;84.06;101320.88;10153024;28;20081;-68
2021/10/05 03:01:21;;;;;;;4.00;1.70;;;;;;;10.60;84.03;101302.81;10131453;28;20067;-70
2021/10/05 03:06:18;;;;;;;6.30;1.83;;;;;;;10.58;84.27;101304.25;10150705;28;20046;-70
2021/10/05 03:11:15;;;;;;;4.70;1.75;;;;;;;10.54;84.41;101298.59;10151887;28;20093;-71
2021/10/05 03:16:11;;;;;;;4.75;1.70;;;;;;;10.56;84.03;101296.38;10149484;28;20043;-71
2021/10/05 03:21:09;;;;;;;6.13;2.10;;;;;;;10.49;85.10;101290.50;10144029;28;20045;-71
2021/10/05 03:26:06;;;;;;;4.43;1.80;;;;;;;10.51;84.24;101285.50;10140514;28;20092;-71
2021/10/05 03:31:02;;;;;;;7.82;2.20;;;;;;;10.49;84.82;101279.56;10139832;28;20465;-70
2021/10/05 03:35:58;;;;;;;7.25;2.00;;;;;;;10.46;85.10;101270.00;10146727;28;20129;-69
2021/10/05 03:40:55;;;;;;;9.30;2.45;;;;;;;10.48;85.33;101272.44;10142508;28;20134;-70
2021/10/05 03:45:53;;;;;;;5.40;1.90;;;;;;;10.49;84.83;101260.41;10142567;28;20050;-70
2021/10/05 03:50:50;;;;;;;6.07;2.33;;;;;;;10.49;84.41;101257.69;10142567;28;20619;-71
2021/10/05 03:55:55;;;;;;;6.03;2.50;;;;;;;10.45;85.19;101245.72;10148479;28;20531;-70
2021/10/05 04:00:52;;;;;;;7.93;2.63;;;;;;;10.45;85.09;101251.19;10138511;28;20138;-71
2021/10/05 04:05:50;;;;;;;6.50;2.83;;;;;;;10.45;85.15;101251.19;10153322;28;20415;-69
2021/10/05 04:10:46;;;;;;;7.15;3.08;;;;;;;10.46;85.31;101236.41;10145190;28;20112;-71
2021/10/05 04:15:43;;;;;;;7.75;2.90;;;;;;;10.45;85.45;101232.06;10143833;28;20465;-71
2021/10/05 04:20:39;;;;;;;7.88;3.65;;;;;;;10.43;85.87;101226.09;10143398;28;20053;-70
2021/10/05 04:25:36;;;;;;;8.63;3.53;;;;;;;10.42;86.09;101219.81;10143606;28;20046;-72
2021/10/05 04:30:33;;;;;;;7.00;3.33;;;;;;;10.44;86.04;101222.22;10136827;28;20431;-70
2021/10/05 04:35:29;;;;;;;8.32;3.53;;;;;;;10.43;85.83;101212.41;10134826;28;20046;-74
2021/10/05 04:40:26;;;;;;;7.07;3.13;;;;;;;10.39;86.22;101208.66;10136894;28;20049;-74
2021/10/05 04:45:23;;;;;;;7.00;3.92;;;;;;;10.38;86.23;101201.59;10138621;28;20077;-72
2021/10/05 04:50:19;;;;;;;7.18;3.58;;;;;;;10.37;86.10;101202.69;10143677;28;20046;-72
2021/10/05 04:55:16;;;;;;;6.43;3.85;;;;;;;10.38;85.86;101198.84;10144899;28;20039;-76
2021/10/05 05:00:13;;;;;;;8.52;3.28;;;;;;;10.37;86.08;101199.94;10147493;28;20096;-74
2021/10/05 05:05:10;;;;;;;7.95;3.42;;;;;;;10.37;85.52;101183.56;10129259;28;20085;-74
2021/10/05 05:10:07;;;;;;;8.55;3.75;;;;;;;10.36;86.07;101176.47;10148328;28;20104;-74
2021/10/05 05:15:04;;;;;;;6.93;3.60;;;;;;;10.38;85.78;101174.25;10146554;28;20070;-73
2021/10/05 05:20:01;;;;;;;9.30;3.60;;;;;;;10.40;85.52;101166.56;10138080;28;20050;-74
2021/10/05 05:24:58;;;;;;;10.30;3.90;;;;;;;10.38;85.95;101174.25;10142652;28;20097;-74
2021/10/05 05:29:54;;;;;;;7.82;4.10;;;;;;;10.34;86.08;101173.25;10126634;28;20178;-72
2021/10/05 05:34:51;;;;;;;6.00;4.07;;;;;;;10.34;86.28;101165.03;10147217;28;20050;-70
2021/10/05 05:39:47;;;;;;;8.60;3.95;;;;;;;10.30;86.80;101157.47;10141564;28;20509;-71
2021/10/05 05:44:44;;;;;;;7.32;3.88;;;;;;;10.32;86.59;101160.66;10135265;28;20070;-71
2021/10/05 05:49:40;;;;;;;8.85;4.32;;;;;;;10.34;86.90;101151.38;10137605;28;20504;-71
2021/10/05 05:54:37;;;;;;;8.98;4.80;;;;;;;10.32;86.82;101149.75;10139549;28;20725;-71
2021/10/05 05:59:33;;;;;;;10.63;5.07;;;;;;;10.34;87.08;101148.63;10125715;28;20108;-71
2021/10/05 06:04:29;;;;;;;14.55;5.38;;;;;;;10.34;87.79;101151.38;10140650;28;20086;-72
2021/10/05 06:09:26;;;;;;;12.70;5.20;;;;;;;10.40;87.37;101144.69;10143544;28;20082;-70
2021/10/05 06:14:28;;;;;;;12.05;5.93;;;;;;;10.46;87.66;101144.25;10126254;28;20051;-71
2021/10/05 06:19:25;;;;;;;11.00;4.80;;;;;;;10.52;87.49;101150.44;10143437;28;20100;-72
2021/10/05 06:24:22;;;;;;;12.07;4.22;;;;;;;10.55;87.74;101147.06;10144057;28;20097;-70
2021/10/05 06:29:18;;;;;;;10.63;4.65;;;;;;;10.59;87.63;101148.09;10136500;28;20138;-71
2021/10/05 06:34:15;;;;;;;7.47;4.40;;;;;;;10.67;87.92;101152.00;10125849;28;20121;-70
2021/10/05 06:39:12;;;;;;;8.70;5.40;;;;;;;10.71;87.93;101164.75;10121864;28;20078;-70
2021/10/05 06:44:08;;;;;;;9.07;5.18;;;;;;;10.74;88.08;101155.13;10141812;28;20104;-71
2021/10/05 06:49:05;;;;;;;8.60;4.72;;;;;;;10.81;88.04;101154.72;10144005;28;20078;-71
2021/10/05 06:54:01;;;;;;;11.40;4.85;;;;;;;10.84;87.79;101143.97;10144497;28;20540;-71
2021/10/05 06:58:57;;;;;;;8.68;4.57;;;;;;;10.91;87.95;101138.09;10149549;28;20138;-70
2021/10/05 07:03:54;;;;;;;8.55;4.72;;;;;;;10.97;88.07;101130.53;10150973;28;20104;-70
2021/10/05 07:08:50;;;;;;;12.95;5.35;;;;;;;11.01;88.35;101132.34;10151479;28;20047;-71
2021/10/05 07:13:47;;;;;;;11.25;5.03;;;;;;;11.08;88.06;101132.72;10150951;28;20527;-71
2021/10/05 07:18:43;;;;;;;10.35;5.10;;;;;;;11.08;87.72;101132.72;10151823;28;20124;-70
2021/10/05 07:23:40;;;;;;;8.93;4.75;;;;;;;11.13;87.58;101118.91;10151484;28;20121;-70
2021/10/05 07:28:44;;;;;;;10.10;5.10;;;;;;;11.18;87.47;101111.69;10150866;28;20046;-71
2021/10/05 07:33:42;;;;;;;11.50;5.38;;;;;;;11.25;nan;101103.84;10150284;28;20042;-70
2021/10/05 07:38:39;;;;;;;10.70;5.60;;;;;;;11.29;87.63;101094.69;10149590;28;20042;-75
2021/10/05 07:43:35;;;;;;;12.05;4.85;;;;;;;11.37;86.76;101096.69;10148000;28;20038;-73
2021/10/05 07:48:32;;;;;;;9.05;4.80;;;;;;;11.45;86.92;101086.91;10141023;28;20093;-71
2021/10/05 07:53:28;;;;;;;8.45;5.30;;;;;;;11.48;86.66;101083.53;10143856;28;20089;-71
2021/10/05 07:58:25;;;;;;;9.43;4.88;;;;;;;11.54;86.59;101074.06;10131819;28;20640;-75
2021/10/05 08:03:21;;;;;;;7.47;4.03;;;;;;;11.62;86.38;101071.66;10150692;28;20042;-75
2021/10/05 08:08:18;;;;;;;8.40;4.65;;;;;;;11.69;85.76;101063.81;10148350;28;20054;-75
2021/10/05 08:13:14;;;;;;;8.23;4.70;;;;;;;11.72;85.31;101054.94;10149224;28;20046;-74
2021/10/05 08:18:11;;;;;;;8.15;4.80;;;;;;;11.77;85.11;101050.13;10147861;28;20582;-73
2021/10/05 08:23:07;;;;;;;12.23;5.32;;;;;;;11.84;84.98;101048.88;10146243;28;20066;-73
2021/10/05 08:28:04;;;;;;;11.27;4.00;;;;;;;11.91;84.76;101028.13;10142822;28;20094;-72
2021/10/05 08:33:02;;;;;;;10.20;4.38;;;;;;;11.96;85.26;101029.91;10152175;28;20046;-74
2021/10/05 08:37:59;;;;;;;10.38;5.35;;;;;;;12.04;84.71;101026.38;10151598;28;20074;-73
2021/10/05 08:42:55;;;;;;;8.77;4.70;;;;;;;11.93;84.47;101012.19;10145233;28;20134;-74
2021/10/05 08:47:53;;;;;;;10.27;5.68;;;;;;;12.00;84.47;101004.28;10147472;28;20050;-72
2021/10/05 08:52:50;;;;;;;7.70;5.00;;;;;;;12.10;84.17;101002.38;10137133;28;20050;-74
2021/10/05 08:57:49;;;;;;;10.15;4.60;;;;;;;12.16;84.32;100988.19;10142944;28;20054;-73
2021/10/05 09:02:48;;;;;;;10.57;5.10;;;;;;;12.20;83.88;100991.06;10127068;28;20077;-73
2021/10/05 09:07:51;;;;;;;9.32;4.78;;;;;;;12.28;83.94;100979.31;10141042;28;20393;-72
2021/10/05 09:12:49;;;;;;;8.45;5.18;;;;;;;12.26;84.04;100978.03;10138006;28;20053;-72
2021/10/05 09:17:56;;;;;;;6.55;4.07;;;;;;;12.35;84.07;100976.91;10131328;28;20069;-72
2021/10/05 09:23:02;;;;;;;7.57;4.25;;;;;;;12.39;84.30;100966.91;10126412;28;20070;-72
2021/10/05 09:27:59;;;;;;;7.75;3.70;;;;;;;12.50;83.88;100970.09;10137611;28;20047;-73
2021/10/05 09:33:01;;;;;;;7.32;4.25;;;;;;;12.60;83.61;100971.69;10141400;28;20092;-71
2021/10/05 09:38:09;;;;;;;16.90;4.68;;;;;;;12.61;83.67;100963.16;10138581;28;20410;-72
2021/10/05 09:43:17;;;;;;;5.32;3.65;;;;;;;12.67;83.53;100966.53;10132495;28;20092;-73
2021/10/05 09:48:14;;;;;;;6.07;3.25;;;;;;;12.70;83.40;100952.16;10139394;28;20594;-73
2021/10/05 09:53:13;;;;;;;7.28;3.88;;;;;;;12.74;83.41;100950.38;10142824;28;20437;-72
2021/10/05 09:58:09;;;;;;;10.80;4.38;;;;;;;12.70;83.35;100952.16;10142143;28;20088;-71
2021/10/05 10:03:07;;;;;;;6.00;3.42;;;;;;;12.64;83.43;100950.72;10140872;28;20078;-75
2021/10/05 10:08:05;;;;;;;5.95;2.90;;;;;;;12.65;83.80;100952.34;10144775;28;20053;-72
2021/10/05 10:13:11;;;;;;;6.40;3.28;;;;;;;12.61;84.22;100941.19;10143034;28;20042;-72
2021/10/05 10:18:15;;;;;;;6.07;4.20;;;;;;;12.53;84.19;100943.94;10143090;28;20117;-72
2021/10/05 10:23:26;;;;;;;7.18;4.00;;;;;;;12.53;84.84;100930.25;10140563;28;20133;-73
2021/10/05 10:28:28;;;;;;;7.05;3.78;;;;;;;12.49;85.37;100926.56;10141624;28;20141;-73
2021/10/05 10:33:28;;;;;;;5.78;3.47;;;;;;;12.43;86.01;100929.44;10147932;28;20089;-73
2021/10/05 10:38:30;;;;;;;6.03;3.60;;;;;;;12.46;86.41;100927.19;10149423;28;20074;-71
2021/10/05 10:43:28;;;;;;;7.10;3.83;;;;;;;12.34;87.30;100908.66;10148068;28;20496;-71
2021/10/05 10:48:37;;;;;;;6.68;3.63;;;;;;;12.41;87.80;100898.00;10144714;28;20054;-72
2021/10/05 10:53:38;;;;;;;6.88;3.40;;;;;;;12.40;88.90;100902.69;10134832;28;20046;-71
2021/10/05 10:58:42;;;;;;;9.15;4.05;;;;;;;12.39;88.64;100890.13;10151336;28;20066;-72
2021/10/05 11:03:44;;;;;;;6.60;3.20;;;;;;;12.34;89.40;100873.81;10147618;28;20050;-74
2021/10/05 11:08:59;;;;;;;6.25;3.45;;;;;;;12.34;90.30;100865.59;10151369;28;20042;-71
2021/10/05 11:14:01;;;;;;;6.50;3.92;;;;;;;12.28;90.55;100871.59;10153239;28;20050;-71
2021/10/05 11:19:12;;;;;;;5.60;2.92;;;;;;;12.33;91.10;100866.72;10126777;28;20436;-71
2021/10/05 11:24:11;;;;;;;5.00;2.80;;;;;;;12.30;91.20;100859.16;10150521;28;20560;-71
2021/10/05 11:29:09;;;;;;;5.68;2.70;;;;;;;12.29;91.44;100849.31;10151202;28;20042;-71
2021/10/05 11:34:05;;;;;;;5.85;2.70;;;;;;;12.35;90.72;100850.75;10152246;28;20131;-72
2021/10/05 11:39:03;;;;;;;5.90;2.97;;;;;;;12.32;91.20;100840.47;10147599;28;20077;-71
2021/10/05 11:44:00;;;;;;;7.07;3.22;;;;;;;12.40;92.64;100828.66;10152861;28;20500;-71
2021/10/05 11:48:57;;;;;;;7.65;3.15;;;;;;;12.49;92.05;100828.63;10146602;28;20137;-75
2021/10/05 11:53:55;;;;;;;5.20;2.95;;;;;;;12.48;92.67;100826.19;10146218;28;20097;-72
2021/10/05 11:58:58;;;;;;;4.30;2.50;;;;;;;12.55;92.36;100810.03;10148899;28;20509;-71
2021/10/05 12:04:04;;;;;;;;;;;;;;;12.73;92.20;100795.13;10148593;28;20050;-71
2021/10/05 12:09:03;;;;;;;4.47;2.70;;;;;;;12.76;92.72;100790.91;10151360;28;19929;-73
2021/10/05 12:14:01;;;;;;;5.10;2.58;;;;;;;12.55;92.23;100788.09;10152874;28;20043;-72
2021/10/05 12:18:59;;;;;;;4.18;2.40;;;;;;;12.69;92.85;100777.69;10149351;28;20085;-71
2021/10/05 12:23:59;;;;;;;4.22;2.10;;;;;;;12.83;92.65;100783.78;10148334;28;20125;-71
2021/10/05 12:29:07;;;;;;;4.47;2.50;;;;;;;12.85;91.72;100786.97;10149740;28;20046;-71
2021/10/05 12:34:08;;;;;;;4.90;2.40;;;;;;;12.87;92.18;100777.63;10142424;28;20039;-73
2021/10/05 12:39:13;;;;;;;4.85;2.67;;;;;;;12.81;92.83;100769.59;10138558;28;20116;-74
2021/10/05 12:44:17;;;;;;;4.50;2.17;;;;;;;12.82;92.29;100760.22;10146067;28;20662;-72
2021/10/05 12:49:14;;;;;;;6.78;2.75;;;;;;;12.83;91.93;100752.78;10145682;28;20055;-74
2021/10/05 12:54:10;;;;;;;5.05;2.72;;;;;;;12.84;91.99;100752.44;10146991;28;20128;-71
2021/10/05 12:59:08;;;;;;;4.25;2.30;;;;;;;12.81;91.98;100747.63;10146898;28;20074;-74
2021/10/05 13:04:09;;;;;;;26.42;10.00;;;;;;;12.87;92.59;100739.22;10145075;28;20057;-71
2021/10/05 13:09:08;;;;;;;5.65;2.50;;;;;;;12.82;92.68;100724.53;10146170;28;20050;-71
2021/10/05 13:14:04;;;;;;;5.00;2.45;;;;;;;12.89;93.26;100715.00;10147812;28;20468;-72
2021/10/05 13:19:02;;;;;;;8.55;3.13;;;;;;;12.93;93.74;100710.44;10150039;28;20489;-71
2021/10/05 13:23:58;;;;;;;6.07;3.83;;;;;;;13.03;93.95;100697.09;10148892;28;20121;-73
2021/10/05 13:28:56;;;;;;;61.95;14.85;;;;;;;13.13;93.82;100704.13;10146498;28;20081;-74
2021/10/05 13:33:52;;;;;;;4.85;2.60;;;;;;;13.09;93.94;100700.47;10145529;28;20062;-73
2021/10/05 13:38:49;;;;;;;4.22;2.53;;;;;;;13.06;94.24;100703.88;10144522;28;20043;-72
2021/10/05 13:43:46;;;;;;;3.10;1.77;;;;;;;13.17;92.89;100709.78;10140327;28;20133;-76
2021/10/05 13:48:42;;;;;;;4.18;2.00;;;;;;;13.17;91.75;100691.34;10137683;28;20046;-73
2021/10/05 13:53:39;;;;;;;4.53;2.13;;;;;;;13.25;91.04;100685.00;10146791;28;20124;-73
2021/10/05 13:58:35;;;;;;;4.88;2.00;;;;;;;13.34;90.85;100676.69;10145991;28;20083;-77
2021/10/05 14:03:33;;;;;;;5.95;2.45;;;;;;;13.29;91.20;100662.38;10137975;28;20070;-72
2021/10/05 14:08:29;;;;;;;5.13;2.75;;;;;;;13.30;91.48;100674.94;10152546;28;20125;-73
2021/10/05 14:13:27;;;;;;;7.30;2.83;;;;;;;13.09;90.78;100670.28;10156220;28;20560;-72
2021/10/05 14:18:23;;;;;;;6.40;3.13;;;;;;;13.13;91.47;100648.44;10155880;28;20065;-73
2021/10/05 14:23:20;;;;;;;5.72;3.00;;;;;;;13.13;91.62;100649.22;10152330;28;20039;-69
2021/10/05 14:28:16;;;;;;;6.38;3.05;;;;;;;13.19;91.50;100641.59;10152810;28;20142;-74
2021/10/05 14:33:13;;;;;;;5.18;2.97;;;;;;;13.18;92.08;100635.31;10149658;28;20496;-72
2021/10/05 14:38:10;;;;;;;5.85;2.72;;;;;;;13.22;92.04;100636.22;10151189;28;20046;-76
2021/10/05 14:43:07;;;;;;;5.25;3.30;;;;;;;13.30;92.16;100625.53;10154209;28;20413;-72
2021/10/05 14:48:04;;;;;;;4.88;3.40;;;;;;;13.28;92.98;100622.34;10153838;28;20073;-71
2021/10/05 14:53:01;;;;;;;5.80;2.40;;;;;;;13.37;92.65;100625.81;10149510;28;20464;-71
2021/10/05 14:57:57;;;;;;;5.07;2.70;;;;;;;13.46;91.91;100624.56;10141361;28;20070;-72
2021/10/05 15:02:54;;;;;;;5.95;3.20;;;;;;;13.51;90.75;100620.81;10154946;28;20062;-72
2021/10/05 15:07:51;;;;;;;3.60;2.10;;;;;;;13.49;89.45;100617.59;10154246;28;20046;-72
2021/10/05 15:12:47;;;;;;;4.90;2.70;;;;;;;13.46;89.29;100601.81;10153752;28;20085;-71
2021/10/05 15:17:44;;;;;;;3.85;2.30;;;;;;;13.46;88.61;100585.31;10138035;28;20573;-71
2021/10/05 15:22:42;;;;;;;4.57;2.80;;;;;;;13.38;90.11;100583.47;10153196;28;20139;-72
2021/10/05 15:27:38;;;;;;;6.13;2.63;;;;;;;13.35;91.02;100567.66;10149936;28;20397;-72
2021/10/05 15:32:35;;;;;;;3.78;2.60;;;;;;;13.38;89.60;100556.78;10149496;28;20101;-73
2021/10/05 15:37:32;;;;;;;3.85;2.53;;;;;;;13.51;89.89;100560.38;10152599;28;20074;-70
2021/10/05 15:42:28;;;;;;;4.68;2.40;;;;;;;13.51;89.71;100567.78;10148509;28;20042;-71
2021/10/05 15:47:25;;;;;;;4.93;2.38;;;;;;;13.48;89.37;100563.78;10151700;28;20073;-71
2021/10/05 15:52:27;;;;;;;5.20;2.90;;;;;;;13.43;88.99;100553.81;10122040;28;20081;-72
2021/10/05 15:57:23;;;;;;;5.88;2.75;;;;;;;13.30;88.87;100559.63;10155161;28;20074;-71
2021/10/05 16:02:20;;;;;;;4.05;2.80;;;;;;;13.22;89.33;100551.13;10138197;28;20042;-73
2021/10/05 16:07:17;;;;;;;3.33;2.33;;;;;;;13.16;89.65;100560.72;10151844;28;20424;-72
2021/10/05 16:12:14;;;;;;;3.97;1.95;;;;;;;13.11;88.88;100569.19;10148252;28;20237;-72
2021/10/05 16:17:11;;;;;;;3.92;2.28;;;;;;;13.07;88.80;100573.75;10146645;28;20512;-71
2021/10/05 16:22:07;;;;;;;3.95;2.30;;;;;;;13.02;88.58;100569.25;10147706;28;20066;-71
2021/10/05 16:27:04;;;;;;;4.38;3.08;;;;;;;12.86;89.03;100568.28;10150204;28;20096;-71
2021/10/05 16:32:01;;;;;;;5.50;2.90;;;;;;;12.86;88.74;100557.31;10150108;28;20138;-72
2021/10/05 16:36:58;;;;;;;4.85;3.28;;;;;;;12.84;89.50;100563.13;10149578;28;20078;-74
2021/10/05 16:41:56;;;;;;;4.72;2.83;;;;;;;12.80;89.09;100562.19;10125316;28;20077;-71
2021/10/05 16:46:54;;;;;;;5.20;3.10;;;;;;;12.71;88.83;100549.69;10131458;28;20046;-72
2021/10/05 16:51:50;;;;;;;4.07;2.97;;;;;;;12.68;88.64;100551.16;10135542;28;20070;-73
2021/10/05 16:56:47;;;;;;;4.32;3.00;;;;;;;12.68;89.43;100555.88;10145299;28;20089;-73
2021/10/05 17:01:44;;;;;;;5.90;3.33;;;;;;;12.67;89.65;100557.81;10150088;28;20073;-71
2021/10/05 17:06:44;;;;;;;5.68;3.85;;;;;;;12.66;89.57;100558.94;10129506;28;20069;-72
2021/10/05 17:11:41;;;;;;;6.47;4.47;;;;;;;12.63;89.99;100565.09;10147823;28;20038;-75
2021/10/05 17:16:38;;;;;;;6.03;4.70;;;;;;;12.59;90.03;100553.19;10147234;28;20080;-72
2021/10/05 17:21:35;;;;;;;6.05;5.18;;;;;;;12.56;90.48;100549.19;10150031;28;20046;-72
2021/10/05 17:26:32;;;;;;;5.57;4.50;;;;;;;12.57;90.68;100550.75;10134188;28;20069;-73
2021/10/05 17:31:30;;;;;;;6.40;4.95;;;;;;;12.55;90.96;100552.25;10141238;28;20508;-70
2021/10/05 17:36:27;;;;;;;6.30;5.15;;;;;;;12.52;91.28;100561.94;10143902;28;20112;-72
2021/10/05 17:41:24;;;;;;;7.68;5.60;;;;;;;12.50;91.85;100549.72;10139260;28;20078;-72
2021/10/05 17:46:20;;;;;;;7.97;6.72;;;;;;;12.43;91.45;100540.06;10147103;28;20581;-71
2021/10/05 17:51:17;;;;;;;10.27;7.22;;;;;;;12.26;92.35;100534.72;10144298;28;20113;-72
2021/10/05 17:56:13;;;;;;;8.13;6.25;;;;;;;12.20;92.44;100530.56;10138045;28;20070;-72
2021/10/05 18:01:10;;;;;;;9.23;7.65;;;;;;;12.11;92.75;100527.88;10138751;28;20101;-72
2021/10/05 18:06:07;;;;;;;9.27;7.03;;;;;;;12.07;92.95;100520.66;10135457;28;20058;-74
2021/10/05 18:11:04;;;;;;;8.73;6.90;;;;;;;12.05;93.42;100517.47;10135000;28;20042;-73
2021/10/05 18:16:00;;;;;;;11.90;9.32;;;;;;;11.95;93.18;100508.50;10143564;28;20050;-73
2021/10/05 18:20:57;;;;;;;10.73;9.15;;;;;;;11.96;93.61;100504.63;10137819;28;20042;-73
2021/10/05 18:25:53;;;;;;;13.15;10.25;;;;;;;11.87;93.96;100487.44;10141929;28;20722;-74
2021/10/05 18:30:50;;;;;;;15.40;10.77;;;;;;;11.81;94.41;100491.44;10143177;28;20455;-73
2021/10/05 18:35:47;;;;;;;11.63;9.38;;;;;;;11.85;94.51;100497.88;10134762;28;20042;-73
2021/10/05 18:40:43;;;;;;;13.68;11.35;;;;;;;11.86;94.72;100510.47;10143438;28;20050;-73
2021/10/05 18:45:40;;;;;;;16.85;12.00;;;;;;;11.85;94.65;100506.09;10141519;28;20133;-73
2021/10/05 18:50:36;;;;;;;15.38;11.60;;;;;;;11.83;94.44;100519.31;10134634;28;20562;-73
2021/10/05 18:55:33;;;;;;;17.63;13.25;;;;;;;11.83;94.87;100510.31;10127465;28;20113;-72
2021/10/05 19:00:29;;;;;;;20.58;13.85;;;;;;;11.81;94.50;100507.88;10153478;28;20078;-71
2021/10/05 19:05:26;;;;;;;21.77;14.63;;;;;;;11.76;94.19;100495.19;10145054;28;20129;-70
2021/10/05 19:10:24;;;;;;;21.05;15.02;;;;;;;11.73;94.39;100501.34;10140715;28;20097;-70
2021/10/05 19:15:25;;;;;;;26.90;17.20;;;;;;;11.70;94.84;100502.00;10144026;28;20047;-73
2021/10/05 19:20:23;;;;;;;27.40;16.55;;;;;;;11.78;95.52;100503.09;10144132;28;20050;-70
2021/10/05 19:25:20;;;;;;;33.63;18.42;;;;;;;11.83;95.97;100505.63;10140862;28;20078;-72
2021/10/05 19:30:16;;;;;;;32.30;20.13;;;;;;;11.83;96.40;100507.56;10139494;28;20046;-74
2021/10/05 19:35:16;;;;;;;24.75;16.63;;;;;;;11.90;96.62;100494.97;10143819;28;20042;-72
2021/10/05 19:40:14;;;;;;;24.35;16.92;;;;;;;11.93;96.16;100504.50;10122384;28;20104;-73
2021/10/05 19:45:12;;;;;;;27.95;18.83;;;;;;;11.94;96.05;100495.13;10140066;28;20069;-72
2021/10/05 19:50:10;;;;;;;25.70;18.52;;;;;;;11.91;96.05;100495.81;10117965;28;20492;-72
2021/10/05 19:55:08;;;;;;;26.83;17.88;;;;;;;11.89;96.06;100493.38;10142613;28;20413;-72
2021/10/05 20:00:06;;;;;;;30.00;19.13;;;;;;;11.87;96.23;100494.81;10134206;28;20054;-72
2021/10/05 20:05:04;;;;;;;25.85;18.73;;;;;;;11.88;96.17;100491.78;10142473;28;20084;-74
2021/10/05 20:10:00;;;;;;;31.60;20.50;;;;;;;11.91;96.18;100490.31;10147956;28;20042;-77
2021/10/05 20:14:58;;;;;;;27.58;18.85;;;;;;;11.90;96.15;100489.50;10159054;28;20100;-73
2021/10/05 20:19:55;;;;;;;30.23;19.08;;;;;;;11.90;95.82;100489.50;10145961;28;20081;-69
2021/10/05 20:24:51;;;;;;;26.65;19.52;;;;;;;11.90;95.74;100489.50;10145542;28;20641;-68
2021/10/05 20:29:48;;;;;;;28.38;19.58;;;;;;;11.84;95.58;100501.78;10136314;28;20073;-68
2021/10/05 20:34:44;;;;;;;23.75;18.02;;;;;;;11.82;95.76;100503.25;10141318;28;20077;-68
2021/10/05 20:39:40;;;;;;;23.88;19.30;;;;;;;11.77;95.90;100501.50;10142412;28;20046;-68
2021/10/05 20:44:37;;;;;;;23.88;17.90;;;;;;;11.77;96.02;100496.00;10143761;28;20034;-67
2021/10/05 20:49:33;;;;;;;24.85;18.52;;;;;;;11.74;96.04;100489.25;10131767;28;20774;-68
2021/10/05 20:54:30;;;;;;;21.40;17.30;;;;;;;11.75;96.45;100499.06;10133142;28;20070;-69
2021/10/05 20:59:26;;;;;;;23.38;17.52;;;;;;;11.81;95.97;100496.94;10142482;28;20050;-69
2021/10/05 21:04:23;;;;;;;24.02;19.25;;;;;;;11.82;96.50;100498.56;10141270;28;20097;-69
2021/10/05 21:09:19;;;;;;;25.05;20.20;;;;;;;11.81;96.61;100502.41;10142025;28;20106;-69
2021/10/05 21:14:17;;;;;;;23.75;18.60;;;;;;;11.84;96.26;100507.25;10147254;28;20067;-68
2021/10/05 21:19:15;;;;;;;20.80;15.95;;;;;;;11.83;96.31;100508.38;10146897;28;20554;-70
2021/10/05 21:24:11;;;;;;;27.35;17.38;;;;;;;11.84;96.19;100501.78;10145074;28;20043;-69
2021/10/05 21:29:08;;;;;;;20.58;16.00;;;;;;;11.83;96.03;100505.63;10141027;28;20085;-68
2021/10/05 21:34:04;;;;;;;19.88;15.25;;;;;;;11.85;96.03;100508.03;10143983;28;20519;-69
2021/10/05 21:39:02;;;;;;;19.33;15.23;;;;;;;11.86;95.95;100504.97;10147949;28;20038;-69
2021/10/05 21:43:58;;;;;;;19.02;14.38;;;;;;;11.87;95.89;100506.59;10140322;28;20138;-69
2021/10/05 21:48:55;;;;;;;20.67;14.82;;;;;;;11.87;95.57;100490.16;10143429;28;20047;-70
2021/10/05 21:53:52;;;;;;;19.63;14.30;;;;;;;11.86;95.44;100502.25;10145563;28;20051;-71
2021/10/05 21:58:48;;;;;;;18.13;14.85;;;;;;;11.90;95.36;100516.88;10145033;28;20523;-69
2021/10/05 22:03:45;;;;;;;20.98;14.98;;;;;;;11.90;95.41;100516.09;10146911;28;20069;-69
2021/10/05 22:08:41;;;;;;;21.77;15.50;;;;;;;11.91;95.19;100521.25;10141732;28;20188;-69
2021/10/05 22:13:38;;;;;;;20.27;13.85;;;;;;;11.91;94.98;100518.50;10150698;28;20540;-68
2021/10/05 22:18:34;;;;;;;19.58;14.60;;;;;;;11.93;94.93;100510.78;10149976;28;20653;-69
2021/10/05 22:23:31;;;;;;;20.20;14.57;;;;;;;11.90;95.00;100511.41;10153464;28;20038;-69
2021/10/05 22:28:27;;;;;;;18.42;14.90;;;;;;;11.95;95.49;100524.13;10139946;28;20517;-68
2021/10/05 22:33:24;;;;;;;19.70;15.32;;;;;;;11.96;95.21;100525.75;10148019;28;20566;-69
2021/10/05 22:38:21;;;;;;;20.42;15.07;;;;;;;11.96;95.22;100526.53;10154839;28;20113;-69
2021/10/05 22:43:20;;;;;;;22.48;14.65;;;;;;;11.98;95.07;100535.22;10153409;28;20050;-69